createdAt,value
2018-10-07T00:01:30.894Z,73.45
2018-10-07T00:06:24.271Z,74.28
2018-10-07T00:11:17.653Z,74.68
2018-10-07T00:16:10.929Z,74.86
2018-10-07T00:21:04.257Z,74.55
2018-10-07T00:25:57.572Z,74.73
2018-10-07T00:30:51.014Z,74.72
2018-10-07T00:35:44.355Z,75.15
2018-10-07T00:40:37.618Z,74.98
2018-10-07T00:45:31.298Z,75.07
2018-10-07T00:50:24.638Z,75.55
2018-10-07T00:55:17.928Z,75.96
2018-10-07T01:00:11.200Z,75.97
2018-10-07T01:05:04.615Z,75.76
2018-10-07T01:09:57.883Z,75.76
2018-10-07T01:14:51.138Z,75.67
2018-10-07T01:19:44.521Z,75.77
2018-10-07T01:24:37.708Z,76.72
2018-10-07T01:29:30.931Z,76.43
2018-10-07T01:34:24.262Z,76.61
2018-10-07T01:39:17.471Z,76.61
2018-10-07T01:44:10.743Z,76.52
2018-10-07T01:49:04.124Z,75.97
2018-10-07T01:53:57.364Z,76.35
2018-10-07T01:58:50.505Z,77.03
2018-10-07T02:03:43.809Z,77.04
2018-10-07T02:08:37.005Z,77.28
2018-10-07T02:13:30.307Z,77.15
2018-10-07T02:18:23.658Z,77.54
2018-10-07T02:23:16.880Z,77.49
2018-10-07T02:28:10.199Z,77.53
2018-10-07T02:33:03.510Z,76.96
2018-10-07T02:37:56.755Z,77.44
2018-10-07T02:42:50.116Z,77.24
2018-10-07T02:47:43.405Z,78.09
2018-10-07T02:52:42.188Z,77.81
2018-10-07T02:57:36.518Z,78.41
2018-10-07T03:02:29.775Z,77.21
2018-10-07T03:07:23.172Z,76.43
2018-10-07T03:12:16.452Z,77.08
2018-10-07T03:17:09.781Z,76.31
2018-10-07T03:22:03.093Z,76.01
2018-10-07T03:26:56.482Z,77.44
2018-10-07T03:31:49.742Z,77.58
2018-10-07T03:36:43.287Z,77.44
2018-10-07T03:41:36.634Z,77.33
2018-10-07T03:46:29.931Z,76.48
2018-10-07T03:51:23.302Z,77.24
2018-10-07T03:56:16.591Z,77.33
2018-10-07T04:01:09.863Z,76.85
2018-10-07T04:06:03.093Z,76.83
2018-10-07T04:10:56.397Z,77.38
2018-10-07T04:15:49.800Z,77.10
2018-10-07T04:20:43.035Z,76.04
2018-10-07T04:25:36.445Z,76.70
2018-10-07T04:30:29.742Z,75.45
2018-10-07T04:35:22.991Z,75.51
2018-10-07T04:40:16.253Z,75.75
2018-10-07T04:45:09.581Z,75.19
2018-10-07T04:50:02.973Z,75.53
2018-10-07T04:54:56.896Z,75.53
2018-10-07T04:59:50.578Z,75.13
2018-10-07T05:04:44.003Z,75.33
2018-10-07T05:09:37.784Z,75.56
2018-10-07T05:14:31.163Z,74.25
2018-10-07T05:19:24.503Z,74.22
2018-10-07T05:24:18.543Z,73.83
2018-10-07T05:29:11.901Z,72.96
2018-10-07T05:34:06.800Z,72.83
2018-10-07T05:39:00.845Z,72.09
2018-10-07T05:43:54.096Z,72.05
2018-10-07T05:48:47.425Z,70.92
2018-10-07T05:53:41.106Z,70.65
2018-10-07T05:58:34.934Z,70.85
2018-10-07T06:03:38.576Z,70.56
2018-10-07T06:08:32.068Z,69.72
2018-10-07T06:13:26.306Z,68.33
2018-10-07T06:18:19.623Z,67.95
2018-10-07T06:23:12.858Z,66.66
2018-10-07T06:28:06.301Z,66.24
2018-10-07T06:32:59.720Z,66.31
2018-10-07T06:37:53.840Z,64.57
2018-10-07T06:42:49.650Z,64.22
2018-10-07T06:47:43.015Z,63.35
2018-10-07T06:52:36.576Z,63.18
2018-10-07T06:57:30.284Z,61.38
2018-10-07T07:02:23.806Z,59.21
2018-10-07T07:07:17.161Z,59.74
2018-10-07T07:12:11.177Z,59.46
2018-10-07T07:17:04.608Z,59.01
2018-10-07T07:21:57.951Z,58.55
2018-10-07T07:26:51.275Z,58.99
2018-10-07T07:31:44.572Z,59.09
2018-10-07T07:36:37.730Z,58.88
2018-10-07T07:41:31.019Z,60.24
2018-10-07T07:46:24.627Z,58.87
2018-10-07T07:51:18.034Z,58.61
2018-10-07T07:56:11.437Z,57.55
2018-10-07T08:01:05.261Z,57.62
2018-10-07T08:05:58.601Z,59.86
2018-10-07T08:10:51.926Z,56.69
2018-10-07T08:15:45.249Z,56.12
2018-10-07T08:20:38.553Z,56.87
2018-10-07T08:25:31.960Z,56.52
2018-10-07T08:30:25.358Z,57.10
2018-10-07T08:35:18.687Z,55.26
2018-10-07T08:40:12.192Z,53.41
2018-10-07T08:45:05.784Z,55.83
2018-10-07T08:49:59.239Z,54.91
2018-10-07T08:54:53.045Z,56.42
2018-10-07T08:59:46.270Z,55.65
2018-10-07T09:04:39.838Z,56.08
2018-10-07T09:09:33.230Z,57.33
2018-10-07T09:14:28.130Z,58.58
2018-10-07T09:19:21.451Z,58.52
2018-10-07T09:24:14.768Z,59.21
2018-10-07T09:29:08.246Z,58.95
2018-10-07T09:34:01.490Z,58.30
2018-10-07T09:38:54.776Z,58.11
2018-10-07T09:43:48.042Z,58.31
2018-10-07T09:48:41.526Z,57.90
2018-10-07T09:53:35.177Z,58.03
2018-10-07T09:58:28.496Z,56.98
2018-10-07T10:03:21.749Z,56.99
2018-10-07T10:08:14.910Z,55.63
2018-10-07T10:13:08.230Z,55.55
2018-10-07T10:18:04.334Z,55.47
2018-10-07T10:23:01.348Z,55.60
2018-10-07T10:28:28.475Z,55.28
2018-10-07T10:33:28.522Z,55.94
2018-10-07T10:38:29.239Z,54.49
2018-10-07T10:43:26.571Z,54.07
2018-10-07T10:48:27.788Z,54.04
2018-10-07T10:53:28.580Z,54.64
2018-10-07T10:59:29.226Z,54.39
2018-10-07T11:04:25.018Z,55.79
2018-10-07T11:09:29.616Z,54.84
2018-10-07T11:14:35.297Z,54.79
2018-10-07T11:19:39.888Z,56.12
2018-10-07T11:24:49.523Z,55.21
2018-10-07T11:29:54.532Z,54.89
2018-10-07T11:34:53.504Z,53.48
2018-10-07T11:40:58.924Z,54.00
2018-10-07T11:46:29.121Z,54.31
2018-10-07T11:53:36.478Z,54.45
2018-10-07T11:58:29.686Z,53.47
2018-10-07T12:03:22.795Z,53.08
2018-10-07T12:08:16.330Z,53.69
2018-10-07T12:13:09.571Z,53.69
2018-10-07T12:18:02.822Z,52.49
2018-10-07T12:23:02.826Z,53.08
2018-10-07T12:27:56.185Z,53.26
2018-10-07T12:32:49.350Z,52.79
2018-10-07T12:37:43.213Z,52.14
2018-10-07T12:42:36.510Z,52.86
2018-10-07T12:47:29.946Z,53.47
2018-10-07T12:52:23.278Z,52.35
2018-10-07T12:57:16.659Z,53.43
2018-10-07T13:02:10.996Z,53.03
2018-10-07T13:07:04.361Z,52.81
2018-10-07T13:11:57.703Z,51.90
2018-10-07T13:16:51.030Z,52.35
2018-10-07T13:21:44.530Z,51.74
2018-10-07T13:26:37.831Z,51.93
2018-10-07T13:31:32.126Z,53.21
2018-10-07T13:36:25.542Z,51.71
2018-10-07T13:41:18.985Z,52.39
2018-10-07T13:46:13.097Z,52.25
2018-10-07T13:51:06.342Z,53.36
2018-10-07T13:55:59.981Z,51.57
2018-10-07T14:00:53.235Z,51.62
2018-10-07T14:05:47.102Z,51.64
2018-10-07T14:10:40.834Z,51.66
2018-10-07T14:15:34.477Z,51.48
2018-10-07T14:20:27.724Z,52.67
2018-10-07T14:25:21.273Z,52.29
2018-10-07T14:30:14.611Z,51.80
2018-10-07T14:35:08.460Z,52.39
2018-10-07T14:40:02.390Z,52.23
2018-10-07T14:44:55.999Z,52.23
2018-10-07T14:49:49.391Z,53.63
2018-10-07T14:54:42.658Z,54.37
2018-10-07T14:59:35.948Z,54.86
2018-10-07T15:04:31.127Z,54.88
2018-10-07T15:09:25.359Z,55.72
2018-10-07T15:14:18.748Z,56.76
2018-10-07T15:19:13.014Z,56.88
2018-10-07T15:24:06.461Z,57.65
2018-10-07T15:29:00.244Z,58.06
2018-10-07T15:33:53.623Z,58.47
2018-10-07T15:38:46.958Z,59.24
2018-10-07T15:43:40.831Z,59.16
2018-10-07T15:48:35.769Z,60.40
2018-10-07T15:53:28.995Z,61.29
2018-10-07T15:58:22.162Z,61.45
2018-10-07T16:03:15.485Z,62.06
2018-10-07T16:08:08.838Z,63.00
2018-10-07T16:13:02.252Z,63.46
2018-10-07T16:17:56.372Z,63.94
2018-10-07T16:22:50.104Z,64.49
2018-10-07T16:27:43.370Z,65.56
2018-10-07T16:32:37.187Z,65.78
2018-10-07T16:37:30.602Z,66.83
2018-10-07T16:42:24.295Z,67.47
2018-10-07T16:47:17.580Z,67.98
2018-10-07T16:52:12.277Z,68.39
2018-10-07T16:57:06.277Z,68.80
2018-10-07T17:02:00.207Z,68.75
2018-10-07T17:06:53.483Z,68.56
2018-10-07T17:11:46.868Z,70.42
2018-10-07T17:16:40.212Z,70.60
2018-10-07T17:21:33.607Z,70.63
2018-10-07T17:26:26.947Z,71.24
2018-10-07T17:31:20.250Z,72.08
2018-10-07T17:36:13.564Z,72.25
2018-10-07T17:41:06.808Z,73.36
2018-10-07T17:46:00.644Z,74.38
2018-10-07T17:50:54.559Z,75.01
2018-10-07T17:55:47.899Z,75.49
2018-10-07T18:00:41.906Z,76.15
2018-10-07T18:05:35.515Z,76.44
2018-10-07T18:10:28.915Z,77.39
2018-10-07T18:15:22.217Z,78.47
2018-10-07T18:20:15.467Z,78.60
2018-10-07T18:25:08.725Z,78.76
2018-10-07T18:30:02.019Z,80.14
2018-10-07T18:34:55.760Z,80.95
2018-10-07T18:39:49.420Z,80.63
2018-10-07T18:44:42.860Z,80.51
2018-10-07T18:49:36.753Z,81.50
2018-10-07T18:54:30.896Z,81.34
2018-10-07T18:59:25.547Z,81.93
2018-10-07T19:04:19.047Z,81.73
2018-10-07T19:09:12.302Z,81.77
2018-10-07T19:14:05.601Z,81.61
2018-10-07T19:18:59.348Z,81.58
2018-10-07T19:23:53.207Z,81.72
2018-10-07T19:28:46.966Z,81.91
2018-10-07T19:33:40.095Z,82.80
2018-10-07T19:38:33.444Z,81.99
2018-10-07T19:43:27.552Z,81.72
2018-10-07T19:48:21.000Z,81.59
2018-10-07T19:53:14.314Z,81.93
2018-10-07T19:58:07.525Z,81.68
2018-10-07T20:03:00.762Z,82.06
2018-10-07T20:07:54.032Z,81.83
2018-10-07T20:12:47.299Z,82.26
2018-10-07T20:17:41.652Z,82.62
2018-10-07T20:22:35.473Z,82.15
2018-10-07T20:27:28.665Z,82.63
2018-10-07T20:32:21.887Z,82.79
2018-10-07T20:37:15.194Z,82.06
2018-10-07T20:42:08.450Z,82.78
2018-10-07T20:47:02.246Z,82.53
2018-10-07T20:51:55.608Z,82.61
2018-10-07T20:56:49.351Z,82.66
2018-10-07T21:01:43.005Z,82.07
2018-10-07T21:06:36.694Z,82.77
2018-10-07T21:11:29.886Z,82.44
2018-10-07T21:16:23.064Z,83.29
2018-10-07T21:21:17.404Z,83.44
2018-10-07T21:26:11.236Z,83.36
2018-10-07T21:31:06.327Z,82.89
2018-10-07T21:35:59.654Z,82.77
2018-10-07T21:40:53.921Z,83.86
2018-10-07T21:45:47.139Z,83.30
2018-10-07T21:50:41.592Z,83.71
2018-10-07T21:55:35.107Z,83.43
2018-10-07T22:00:28.559Z,82.94
2018-10-07T22:05:24.225Z,83.18
2018-10-07T22:10:17.550Z,83.16
2018-10-07T22:15:10.847Z,83.41
2018-10-07T22:20:04.446Z,83.33
2018-10-07T22:24:59.638Z,83.92
2018-10-07T22:29:53.408Z,83.38
2018-10-07T22:34:46.576Z,82.88
2018-10-07T22:39:40.074Z,83.96
2018-10-07T22:44:34.161Z,84.22
2018-10-07T22:49:27.644Z,84.38
2018-10-07T22:54:20.892Z,84.71
2018-10-07T22:59:13.981Z,85.01
2018-10-07T23:04:07.312Z,85.50
2018-10-07T23:09:01.561Z,84.58
2018-10-07T23:13:54.745Z,84.65
2018-10-07T23:18:49.775Z,85.41
2018-10-07T23:23:43.035Z,85.43
2018-10-07T23:28:36.207Z,84.67
2018-10-07T23:33:29.455Z,84.99
2018-10-07T23:38:22.653Z,84.91
2018-10-07T23:43:15.866Z,85.51
2018-10-07T23:48:09.138Z,85.50
2018-10-07T23:53:02.393Z,85.66
2018-10-07T23:57:56.075Z,85.63
